Arnold Palmer Regional Airport
KLBE : now visible

Airfield :











YOU CAN JOIN US ON...

 
LOGIN :

Register | Disclaimer

   EN    FR    IT 

 









Legend :    VFR   Marginal VFR   IFR   Intensive IFR   Very Intensive IFR
Visi :
Ceiling :
>= 8 km
>= 3000ft
5 to 8 km
1000 to 3000 ft
1500m to 5 km
500 to 1000 ft
800 to 1500m
200 to 500 ft
< 800m
< 200 ft
Symbols :   Thunderstorms  Fog  Heavy snow  Heavy precipitations  Wind > 20 kt







- Airport Elevation : 1199 ft
- IATA code : LBE


KLBE - Arnold Palmer Regional

CURRENT METAR :
  • 162051Z 00000KT 10SM SCT050 28/17 A3001

EXPIRED METARs :
  • 161951Z 24010KT 10SM BKN050 28/17 A3002
  • 161851Z 24005KT 10SM BKN060 29/15 A3004

TAF KLBE
Valid from the 16 at 18:00 until the 17 at 18:00 UTC


161731Z 1618/1718 21010KT P6SM BKN060
FM170800 04003KT P6SM BKN025
FM171000 00000KT P6SM BKN010
FM171400 06006KT P6SM BKN025
No reported NOTAMs for that airfield.



MET'MAP, your aeronautical weather chart ! - Copyright ORBIFLY December 2007 - Disclaimer

ORBIFLY MET'MAP TEAM :

Programming & Development : Alexandra Zaïnal
Concept & Development : Baudouin d'Aumeries
Co-Development & Prog : Marc-Olivier Méhu
Technical & hardware support : Manuel Goepfert

Contact : metmap@orbifly.com




SOURCES & CREDITS :

   NOAA       Earth
Advisory